- বাংলা English

 * * Phone: +880 29135742, 9123838, 9141437 | FAX: +880 2 9119230, 9103908, 58152019*   

METAR

VGHS 210800Z 09006KT 2800 HZ BKN010 BKN100 28/25 Q1006 TEMPO RA=